createdAt,value
2023-02-23T00:00:51.057Z,96.33
2023-02-23T00:03:17.456Z,96.39
2023-02-23T00:05:43.798Z,96.40
2023-02-23T00:08:10.143Z,96.43
2023-02-23T00:10:36.467Z,96.44
2023-02-23T00:13:02.807Z,96.36
2023-02-23T00:15:29.146Z,96.46
2023-02-23T00:17:55.533Z,96.46
2023-02-23T00:20:21.856Z,96.51
2023-02-23T00:22:48.585Z,96.56
2023-02-23T00:25:14.933Z,96.63
2023-02-23T00:27:41.317Z,96.58
2023-02-23T00:30:07.642Z,96.69
2023-02-23T00:32:34.194Z,96.81
2023-02-23T00:35:00.397Z,96.83
2023-02-23T00:37:26.733Z,96.91
2023-02-23T00:39:53.146Z,96.96
2023-02-23T00:42:19.507Z,97.02
2023-02-23T00:44:45.851Z,97.03
2023-02-23T00:47:12.267Z,97.10
2023-02-23T00:49:38.621Z,97.23
2023-02-23T00:52:04.993Z,97.20
2023-02-23T00:54:31.381Z,97.37
2023-02-23T00:56:57.769Z,97.50
2023-02-23T00:59:24.109Z,97.34
2023-02-23T01:01:50.495Z,97.58
2023-02-23T01:04:16.865Z,97.50
2023-02-23T01:06:43.314Z,97.61
2023-02-23T01:09:09.644Z,97.73
2023-02-23T01:11:35.968Z,97.71
2023-02-23T01:14:02.377Z,97.86
2023-02-23T01:16:28.759Z,97.90
2023-02-23T01:18:55.072Z,97.94
2023-02-23T01:21:21.470Z,97.89
2023-02-23T01:23:47.815Z,97.93
2023-02-23T01:26:14.235Z,98.02
2023-02-23T01:28:40.598Z,98.02
2023-02-23T01:31:07.042Z,98.04
2023-02-23T01:33:33.351Z,98.16
2023-02-23T01:35:59.695Z,98.27
2023-02-23T01:38:26.024Z,98.10
2023-02-23T01:40:52.402Z,98.32
2023-02-23T01:43:18.717Z,98.44
2023-02-23T01:45:45.103Z,98.55
2023-02-23T01:48:11.469Z,98.47
2023-02-23T01:50:37.800Z,98.60
2023-02-23T01:53:04.180Z,98.64
2023-02-23T01:55:30.556Z,98.70
2023-02-23T01:57:56.906Z,98.66
2023-02-23T02:00:23.240Z,98.78
2023-02-23T02:02:49.606Z,98.76
2023-02-23T02:05:15.967Z,98.86
2023-02-23T02:07:42.288Z,98.92
2023-02-23T02:10:08.667Z,98.95
2023-02-23T02:12:35.073Z,98.91
2023-02-23T02:15:01.455Z,98.91
2023-02-23T02:17:27.778Z,98.95
2023-02-23T02:19:54.138Z,99.07
2023-02-23T02:22:20.462Z,99.00
2023-02-23T02:24:46.917Z,99.17
2023-02-23T02:27:13.221Z,99.17
2023-02-23T02:29:39.548Z,99.33
2023-02-23T02:32:06.045Z,99.20
2023-02-23T02:34:32.299Z,99.17
2023-02-23T02:36:58.631Z,99.29
2023-02-23T02:39:24.969Z,99.32
2023-02-23T02:41:51.330Z,99.36
2023-02-23T02:44:17.713Z,99.39
2023-02-23T02:46:44.035Z,99.41
2023-02-23T02:49:10.442Z,99.43
2023-02-23T02:51:36.801Z,99.53
2023-02-23T02:54:03.193Z,99.46
2023-02-23T02:56:29.546Z,99.55
2023-02-23T02:58:55.883Z,99.56
2023-02-23T03:01:22.236Z,99.66
2023-02-23T03:03:48.618Z,99.51
2023-02-23T03:06:14.951Z,99.59
2023-02-23T03:08:41.331Z,99.49
2023-02-23T03:11:07.676Z,99.65
2023-02-23T03:13:34.115Z,99.78
2023-02-23T03:16:00.485Z,99.72
2023-02-23T03:18:26.901Z,99.68
2023-02-23T03:20:53.266Z,99.73
2023-02-23T03:23:19.641Z,99.65
2023-02-23T03:25:46.012Z,99.73
2023-02-23T03:28:12.407Z,99.76
2023-02-23T03:30:38.756Z,99.82
2023-02-23T03:33:05.072Z,99.73
2023-02-23T03:35:31.449Z,99.76
2023-02-23T03:37:57.828Z,99.60
2023-02-23T03:40:24.201Z,99.69
2023-02-23T03:42:50.589Z,99.62
2023-02-23T03:45:16.892Z,99.49
2023-02-23T03:47:43.309Z,99.54
2023-02-23T03:50:09.666Z,99.52
2023-02-23T03:52:36.006Z,99.60
2023-02-23T03:55:02.380Z,99.67
2023-02-23T03:57:28.764Z,99.57
2023-02-23T03:59:55.072Z,99.66
2023-02-23T04:02:21.423Z,99.72
2023-02-23T04:04:47.744Z,99.81
2023-02-23T04:07:14.128Z,99.94
2023-02-23T04:09:40.478Z,99.94
2023-02-23T04:12:06.865Z,99.94
2023-02-23T04:14:33.240Z,99.79
2023-02-23T04:16:59.582Z,99.99
2023-02-23T04:19:25.947Z,100.00
2023-02-23T04:21:52.338Z,100.00
2023-02-23T04:24:18.662Z,100.00
2023-02-23T04:26:45.049Z,100.00
2023-02-23T04:29:11.417Z,100.00
2023-02-23T04:31:37.814Z,100.00
2023-02-23T04:34:04.081Z,100.00
2023-02-23T04:36:30.457Z,100.00
2023-02-23T04:38:56.801Z,100.00
2023-02-23T04:41:23.159Z,100.00
2023-02-23T04:43:49.522Z,100.00
2023-02-23T04:46:15.925Z,100.00
2023-02-23T04:48:42.215Z,100.00
2023-02-23T04:51:08.628Z,100.00
2023-02-23T04:53:34.926Z,100.00
2023-02-23T04:56:01.320Z,100.00
2023-02-23T04:58:27.634Z,100.00
2023-02-23T05:00:54.020Z,100.00
2023-02-23T05:03:20.344Z,100.00
2023-02-23T05:05:46.801Z,100.00
2023-02-23T05:08:13.201Z,100.00
2023-02-23T05:10:40.422Z,100.00
2023-02-23T05:13:05.897Z,100.00
2023-02-23T05:15:32.327Z,100.00
2023-02-23T05:17:58.637Z,100.00
2023-02-23T05:20:25.007Z,100.00
2023-02-23T05:22:51.644Z,100.00
2023-02-23T05:25:17.983Z,100.00
2023-02-23T05:27:44.311Z,100.00
2023-02-23T05:30:11.225Z,100.00
2023-02-23T05:32:37.601Z,100.00
2023-02-23T05:35:03.869Z,100.00
2023-02-23T05:37:30.250Z,100.00
2023-02-23T05:39:56.647Z,100.00
2023-02-23T05:42:23.011Z,100.00
2023-02-23T05:44:49.362Z,100.00
2023-02-23T05:47:15.854Z,100.00
2023-02-23T05:49:42.223Z,100.00
2023-02-23T05:52:08.636Z,100.00
2023-02-23T05:54:34.983Z,100.00
2023-02-23T05:57:01.907Z,92.44
2023-02-23T05:59:27.707Z,76.32
2023-02-23T06:01:54.067Z,70.72
2023-02-23T06:04:20.461Z,69.45
2023-02-23T06:06:46.824Z,68.27
2023-02-23T06:09:13.200Z,66.84
2023-02-23T06:11:39.774Z,65.61
2023-02-23T06:14:06.163Z,64.88
2023-02-23T06:16:32.598Z,64.91
2023-02-23T06:18:58.924Z,64.35
2023-02-23T06:21:25.256Z,64.02
2023-02-23T06:23:51.638Z,64.39
2023-02-23T06:26:18.249Z,63.43
2023-02-23T06:28:44.556Z,63.07
2023-02-23T06:31:11.385Z,62.37
2023-02-23T06:33:37.632Z,61.94
2023-02-23T06:36:04.040Z,61.92
2023-02-23T06:38:30.324Z,61.29
2023-02-23T06:40:56.985Z,61.00
2023-02-23T06:43:23.561Z,60.72
2023-02-23T06:45:49.715Z,60.12
2023-02-23T06:48:16.111Z,59.52
2023-02-23T06:50:42.497Z,59.06
2023-02-23T06:53:08.828Z,58.98
2023-02-23T06:55:35.179Z,59.06
2023-02-23T06:58:01.505Z,58.92
2023-02-23T07:00:27.899Z,59.15
2023-02-23T07:02:54.253Z,59.10
2023-02-23T07:05:20.643Z,58.79
2023-02-23T07:07:47.132Z,58.72
2023-02-23T07:10:13.514Z,58.06
2023-02-23T07:12:39.836Z,57.83
2023-02-23T07:15:06.305Z,58.70
2023-02-23T07:17:32.678Z,58.18
2023-02-23T07:19:59.066Z,58.04
2023-02-23T07:22:25.427Z,56.46
2023-02-23T07:24:51.949Z,56.50
2023-02-23T07:27:18.326Z,56.30
2023-02-23T07:29:44.649Z,55.58
2023-02-23T07:32:12.280Z,55.85
2023-02-23T07:34:38.473Z,55.79
2023-02-23T07:37:04.861Z,54.93
2023-02-23T07:39:31.334Z,55.46
2023-02-23T07:41:57.646Z,55.26
2023-02-23T07:44:24.063Z,55.15
2023-02-23T07:46:50.783Z,54.59
2023-02-23T07:49:17.124Z,52.74
2023-02-23T07:51:43.468Z,52.16
2023-02-23T07:54:09.958Z,52.42
2023-02-23T07:56:36.274Z,52.66
2023-02-23T07:59:02.638Z,52.08
2023-02-23T08:01:29.072Z,50.94
2023-02-23T08:03:55.421Z,49.71
2023-02-23T08:06:21.734Z,49.57
2023-02-23T08:08:48.145Z,49.21
2023-02-23T08:11:14.506Z,48.52
2023-02-23T08:13:40.863Z,48.79
2023-02-23T08:16:07.245Z,48.49
2023-02-23T08:18:33.676Z,48.72
2023-02-23T08:20:59.980Z,47.81
2023-02-23T08:23:26.329Z,47.70
2023-02-23T08:25:52.657Z,48.27
2023-02-23T08:28:19.042Z,46.60
2023-02-23T08:30:45.515Z,46.02
2023-02-23T08:33:11.802Z,45.89
2023-02-23T08:35:38.140Z,45.33
2023-02-23T08:38:04.549Z,45.01
2023-02-23T08:40:30.928Z,44.22
2023-02-23T08:42:57.306Z,43.98
2023-02-23T08:45:23.658Z,44.12
2023-02-23T08:47:50.086Z,44.33
2023-02-23T08:50:16.391Z,42.73
2023-02-23T08:52:42.744Z,43.11
2023-02-23T08:55:09.134Z,43.15
2023-02-23T08:57:35.495Z,42.60
2023-02-23T09:00:01.858Z,42.54
2023-02-23T09:02:28.230Z,41.22
2023-02-23T09:04:54.584Z,40.92
2023-02-23T09:07:21.220Z,40.63
2023-02-23T09:09:47.548Z,41.04
2023-02-23T09:12:13.973Z,40.47
2023-02-23T09:14:40.465Z,39.89
2023-02-23T09:17:06.867Z,39.40
2023-02-23T09:19:33.211Z,39.67
2023-02-23T09:21:59.617Z,39.54
2023-02-23T09:24:27.022Z,39.51
2023-02-23T09:26:53.368Z,39.46
2023-02-23T09:29:19.746Z,38.31
2023-02-23T09:31:46.166Z,38.49
2023-02-23T09:34:12.456Z,37.99
2023-02-23T09:36:38.846Z,37.92
2023-02-23T09:39:05.244Z,37.29
2023-02-23T09:41:31.625Z,37.43
2023-02-23T09:43:58.077Z,38.06
2023-02-23T09:46:24.501Z,37.84
2023-02-23T09:48:50.800Z,37.25
2023-02-23T09:51:17.668Z,36.13
2023-02-23T09:53:43.919Z,35.59
2023-02-23T09:56:09.943Z,35.78
2023-02-23T09:58:36.267Z,36.25
2023-02-23T10:01:02.659Z,35.88
2023-02-23T10:03:29.068Z,35.62
2023-02-23T10:05:55.428Z,36.13
2023-02-23T10:08:22.048Z,36.27
2023-02-23T10:10:48.446Z,35.25
2023-02-23T10:13:14.816Z,35.29
2023-02-23T10:15:41.233Z,35.37
2023-02-23T10:18:07.478Z,35.11
2023-02-23T10:20:33.901Z,35.53
2023-02-23T10:23:00.234Z,35.13
2023-02-23T10:25:26.635Z,34.70
2023-02-23T10:27:52.951Z,33.85
2023-02-23T10:30:19.321Z,33.03
2023-02-23T10:32:45.722Z,33.20
2023-02-23T10:35:12.087Z,33.63
2023-02-23T10:37:38.442Z,33.42
2023-02-23T10:40:04.901Z,32.80
2023-02-23T10:42:31.248Z,33.39
2023-02-23T10:44:57.611Z,33.16
2023-02-23T10:47:24.306Z,32.91
2023-02-23T10:49:50.593Z,33.44
2023-02-23T10:52:16.920Z,33.05
2023-02-23T10:54:43.281Z,33.14
2023-02-23T10:57:09.663Z,32.32
2023-02-23T10:59:36.146Z,32.23
2023-02-23T11:02:03.050Z,31.80
2023-02-23T11:04:29.336Z,31.94
2023-02-23T11:06:55.612Z,31.64
2023-02-23T11:09:24.862Z,31.65
2023-02-23T11:11:48.380Z,31.74
2023-02-23T11:14:14.725Z,30.44
2023-02-23T11:16:41.153Z,30.51
2023-02-23T11:19:07.457Z,30.42
2023-02-23T11:21:34.245Z,31.03
2023-02-23T11:24:00.575Z,31.34
2023-02-23T11:26:26.950Z,31.17
2023-02-23T11:28:53.309Z,31.32
2023-02-23T11:31:19.997Z,31.21
2023-02-23T11:33:45.995Z,31.18
2023-02-23T11:36:12.434Z,31.05
2023-02-23T11:38:38.819Z,30.49
2023-02-23T11:41:05.149Z,29.64
2023-02-23T11:43:31.520Z,29.99
2023-02-23T11:45:57.889Z,29.96
2023-02-23T11:48:24.315Z,30.63
2023-02-23T11:50:50.643Z,30.34
2023-02-23T11:53:17.051Z,30.73
2023-02-23T11:55:43.454Z,30.36
2023-02-23T11:58:09.886Z,31.37
2023-02-23T12:00:36.198Z,31.23
2023-02-23T12:03:02.639Z,31.39
2023-02-23T12:05:28.937Z,31.62
2023-02-23T12:07:55.293Z,31.33
2023-02-23T12:10:21.761Z,31.02
2023-02-23T12:12:48.111Z,30.69
2023-02-23T12:15:14.437Z,30.81
2023-02-23T12:17:40.836Z,31.32
2023-02-23T12:20:07.166Z,30.84
2023-02-23T12:22:33.551Z,30.24
2023-02-23T12:24:59.878Z,31.10
2023-02-23T12:27:26.289Z,30.81
2023-02-23T12:29:52.622Z,30.77
2023-02-23T12:32:19.334Z,31.03
2023-02-23T12:34:45.546Z,31.14
2023-02-23T12:37:11.901Z,31.13
2023-02-23T12:39:38.314Z,30.85
2023-02-23T12:42:04.672Z,31.32
2023-02-23T12:44:31.085Z,31.37
2023-02-23T12:46:57.543Z,31.34
2023-02-23T12:49:23.857Z,31.48
2023-02-23T12:51:50.250Z,31.80
2023-02-23T12:54:16.709Z,32.10
2023-02-23T12:56:43.162Z,32.01
2023-02-23T12:59:09.517Z,32.28
2023-02-23T13:01:35.958Z,32.16
2023-02-23T13:04:02.271Z,32.40
2023-02-23T13:06:28.655Z,32.52
2023-02-23T13:08:55.020Z,32.80
2023-02-23T13:11:21.556Z,32.71
2023-02-23T13:13:47.852Z,32.79
2023-02-23T13:16:14.511Z,32.70
2023-02-23T13:18:40.869Z,32.70
2023-02-23T13:21:07.255Z,32.97
2023-02-23T13:23:33.688Z,32.72
2023-02-23T13:26:00.086Z,33.03
2023-02-23T13:28:26.386Z,33.37
2023-02-23T13:30:52.825Z,33.34
2023-02-23T13:33:19.065Z,33.46
2023-02-23T13:35:45.506Z,33.79
2023-02-23T13:38:11.827Z,33.78
2023-02-23T13:40:38.246Z,33.84
2023-02-23T13:43:04.587Z,33.91
2023-02-23T13:45:30.949Z,34.09
2023-02-23T13:47:57.432Z,33.96
2023-02-23T13:50:23.821Z,33.94
2023-02-23T13:52:50.250Z,34.16
2023-02-23T13:55:16.610Z,34.17
2023-02-23T13:57:42.939Z,34.35
2023-02-23T14:00:09.421Z,34.07
2023-02-23T14:02:35.830Z,34.44
2023-02-23T14:05:02.093Z,34.14
2023-02-23T14:07:28.412Z,34.66
2023-02-23T14:09:55.092Z,34.72
2023-02-23T14:12:21.428Z,33.96
2023-02-23T14:14:47.772Z,34.47
2023-02-23T14:17:14.164Z,35.33
2023-02-23T14:19:40.630Z,36.15
2023-02-23T14:22:07.044Z,36.60
2023-02-23T14:24:33.447Z,37.42
2023-02-23T14:26:59.851Z,38.47
2023-02-23T14:29:26.229Z,38.74
2023-02-23T14:31:52.742Z,39.18
2023-02-23T14:34:18.917Z,39.35
2023-02-23T14:36:45.316Z,39.52
2023-02-23T14:39:11.745Z,39.89
2023-02-23T14:41:38.167Z,40.09
2023-02-23T14:44:04.607Z,39.30
2023-02-23T14:46:31.052Z,39.14
2023-02-23T14:48:57.370Z,38.58
2023-02-23T14:51:23.726Z,38.46
2023-02-23T14:53:50.167Z,38.08
2023-02-23T14:56:16.571Z,37.47
2023-02-23T14:58:43.297Z,37.74
2023-02-23T15:01:09.640Z,38.07
2023-02-23T15:03:35.971Z,38.81
2023-02-23T15:06:02.422Z,38.41
2023-02-23T15:08:28.735Z,38.64
2023-02-23T15:10:55.131Z,38.51
2023-02-23T15:13:21.524Z,39.01
2023-02-23T15:15:47.841Z,39.04
2023-02-23T15:18:14.244Z,39.32
2023-02-23T15:20:40.607Z,39.84
2023-02-23T15:23:07.030Z,40.17
2023-02-23T15:25:33.357Z,40.82
2023-02-23T15:27:59.727Z,41.00
2023-02-23T15:30:26.029Z,40.00
2023-02-23T15:32:52.578Z,41.39
2023-02-23T15:35:18.783Z,41.50
2023-02-23T15:37:45.146Z,41.44
2023-02-23T15:40:12.006Z,41.86
2023-02-23T15:42:38.393Z,41.44
2023-02-23T15:45:04.719Z,41.77
2023-02-23T15:47:31.064Z,42.09
2023-02-23T15:49:57.512Z,42.14
2023-02-23T15:52:23.887Z,42.17
2023-02-23T15:54:50.404Z,42.68
2023-02-23T15:57:16.838Z,42.25
2023-02-23T15:59:43.155Z,42.47
2023-02-23T16:02:09.541Z,42.97
2023-02-23T16:04:38.361Z,43.58
2023-02-23T16:07:04.871Z,42.15
2023-02-23T16:09:33.585Z,44.13
2023-02-23T16:11:59.912Z,43.59
2023-02-23T16:14:26.235Z,43.78
2023-02-23T16:17:04.918Z,44.10
2023-02-23T16:19:18.987Z,44.01
2023-02-23T16:21:45.409Z,44.35
2023-02-23T16:24:11.846Z,44.76
2023-02-23T16:26:38.182Z,44.56
2023-02-23T16:29:04.585Z,44.79
2023-02-23T16:31:30.998Z,45.73
2023-02-23T16:33:57.328Z,46.25
2023-02-23T16:36:23.960Z,45.23
2023-02-23T16:38:50.844Z,45.90
2023-02-23T16:41:17.464Z,46.56
2023-02-23T16:43:45.134Z,45.75
2023-02-23T16:46:11.487Z,47.01
2023-02-23T16:48:37.909Z,47.28
2023-02-23T16:51:04.255Z,46.67
2023-02-23T16:53:30.613Z,47.42
2023-02-23T16:55:56.930Z,47.33
2023-02-23T16:58:23.388Z,47.59
2023-02-23T17:00:49.698Z,47.24
2023-02-23T17:03:16.097Z,47.26
2023-02-23T17:05:42.838Z,47.99
2023-02-23T17:08:09.170Z,47.73
2023-02-23T17:10:35.596Z,48.56
2023-02-23T17:13:01.945Z,47.88
2023-02-23T17:15:28.433Z,48.85
2023-02-23T17:17:54.790Z,48.69
2023-02-23T17:20:21.176Z,49.23
2023-02-23T17:22:47.586Z,49.69
2023-02-23T17:25:14.028Z,50.08
2023-02-23T17:27:40.421Z,50.55
2023-02-23T17:30:06.752Z,50.41
2023-02-23T17:32:33.299Z,50.75
2023-02-23T17:34:59.627Z,51.04
2023-02-23T17:37:26.007Z,51.54
2023-02-23T17:39:52.390Z,51.55
2023-02-23T17:42:18.792Z,51.39
2023-02-23T17:44:45.151Z,51.54
2023-02-23T17:47:11.551Z,51.72
2023-02-23T17:49:37.919Z,51.69
2023-02-23T17:52:04.298Z,52.05
2023-02-23T17:54:30.897Z,51.72
2023-02-23T17:56:57.273Z,52.13
2023-02-23T17:59:23.636Z,52.48
2023-02-23T18:01:50.326Z,52.76
2023-02-23T18:04:16.599Z,53.49
2023-02-23T18:06:42.946Z,52.93
2023-02-23T18:09:09.375Z,53.00
2023-02-23T18:11:35.687Z,53.27
2023-02-23T18:14:02.021Z,53.30
2023-02-23T18:16:28.640Z,53.64
2023-02-23T18:18:54.898Z,53.66
2023-02-23T18:21:21.350Z,54.00
2023-02-23T18:23:48.017Z,53.67
2023-02-23T18:26:14.448Z,53.70
2023-02-23T18:28:40.845Z,54.06
2023-02-23T18:31:08.430Z,54.10
2023-02-23T18:33:34.764Z,53.98
2023-02-23T18:36:01.124Z,54.21
2023-02-23T18:38:27.786Z,55.06
2023-02-23T18:40:54.170Z,54.81
2023-02-23T18:43:20.530Z,55.56
2023-02-23T18:45:46.921Z,56.15
2023-02-23T18:48:15.458Z,55.82
2023-02-23T18:50:41.835Z,57.04
2023-02-23T18:53:08.181Z,58.89
2023-02-23T18:55:34.569Z,58.26
2023-02-23T18:58:00.924Z,57.38
2023-02-23T19:00:27.488Z,58.09
2023-02-23T19:02:53.716Z,57.95
2023-02-23T19:05:22.046Z,57.06
2023-02-23T19:07:46.521Z,57.17
2023-02-23T19:10:12.896Z,57.91
2023-02-23T19:12:39.332Z,57.55
2023-02-23T19:15:05.926Z,57.51
2023-02-23T19:17:32.295Z,57.40
2023-02-23T19:19:58.673Z,57.92
2023-02-23T19:22:25.002Z,57.34
2023-02-23T19:24:51.353Z,58.05
2023-02-23T19:27:17.758Z,58.65
2023-02-23T19:29:44.109Z,58.37
2023-02-23T19:32:10.617Z,58.39
2023-02-23T19:34:37.055Z,59.24
2023-02-23T19:37:03.489Z,58.90
2023-02-23T19:39:29.845Z,59.20
2023-02-23T19:41:56.253Z,59.74
2023-02-23T19:44:22.595Z,59.33
2023-02-23T19:46:49.155Z,59.65
2023-02-23T19:49:15.520Z,59.36
2023-02-23T19:51:42.373Z,60.13
2023-02-23T19:54:08.999Z,59.64
2023-02-23T19:56:35.350Z,60.62
2023-02-23T19:59:01.688Z,60.12
2023-02-23T20:01:28.846Z,60.72
2023-02-23T20:03:55.247Z,60.75
2023-02-23T20:06:21.868Z,61.12
2023-02-23T20:08:48.263Z,61.71
2023-02-23T20:11:14.713Z,61.84
2023-02-23T20:13:41.160Z,61.61
2023-02-23T20:16:07.648Z,61.93
2023-02-23T20:18:34.086Z,63.82
2023-02-23T20:21:00.452Z,71.38
2023-02-23T20:23:27.163Z,75.09
2023-02-23T20:25:53.468Z,75.55
2023-02-23T20:28:19.898Z,75.73
2023-02-23T20:30:46.325Z,76.34
2023-02-23T20:33:12.655Z,76.95
2023-02-23T20:35:39.089Z,77.37
2023-02-23T20:38:05.436Z,77.75
2023-02-23T20:40:31.796Z,78.30
2023-02-23T20:42:58.256Z,78.71
2023-02-23T20:45:24.901Z,79.03
2023-02-23T20:47:51.260Z,79.27
2023-02-23T20:50:17.622Z,79.54
2023-02-23T20:52:43.969Z,79.79
2023-02-23T20:55:10.333Z,80.04
2023-02-23T20:57:36.730Z,80.35
2023-02-23T21:00:03.053Z,80.60
2023-02-23T21:02:29.506Z,80.81
2023-02-23T21:04:55.852Z,81.08
2023-02-23T21:07:22.197Z,81.27
2023-02-23T21:09:48.608Z,81.52
2023-02-23T21:12:15.090Z,81.78
2023-02-23T21:14:41.506Z,81.88
2023-02-23T21:17:08.163Z,82.02
2023-02-23T21:19:34.474Z,82.26
2023-02-23T21:22:00.821Z,84.15
2023-02-23T21:30:27.944Z,83.56
2023-02-23T21:32:54.353Z,83.35
2023-02-23T21:35:20.661Z,82.31
2023-02-23T21:37:47.032Z,82.29
2023-02-23T21:40:13.417Z,82.70
2023-02-23T21:42:39.763Z,83.21
2023-02-23T21:45:06.111Z,83.71
2023-02-23T21:47:32.433Z,84.19
2023-02-23T21:49:58.812Z,84.52
2023-02-23T21:52:25.162Z,84.68
2023-02-23T21:54:51.522Z,84.93
2023-02-23T21:57:17.880Z,85.33
2023-02-23T21:59:44.266Z,85.42
2023-02-23T22:02:10.623Z,85.83
2023-02-23T22:04:37.269Z,86.08
2023-02-23T22:07:03.357Z,86.19
2023-02-23T22:09:29.755Z,85.67
2023-02-23T22:11:56.175Z,86.66
2023-02-23T22:14:22.517Z,86.98
2023-02-23T22:16:48.830Z,87.23
2023-02-23T22:19:15.310Z,88.20
2023-02-23T22:21:41.605Z,88.40
2023-02-23T22:24:07.988Z,88.31
2023-02-23T22:26:34.308Z,88.48
2023-02-23T22:29:00.657Z,88.61
2023-02-23T22:31:27.122Z,88.76
2023-02-23T22:33:53.468Z,88.79
2023-02-23T22:36:19.804Z,88.88
2023-02-23T22:38:46.181Z,89.12
2023-02-23T22:41:12.564Z,89.31
2023-02-23T22:43:38.957Z,89.50
2023-02-23T22:46:05.303Z,89.62
2023-02-23T22:48:32.011Z,89.78
2023-02-23T22:50:58.374Z,89.93
2023-02-23T22:53:24.708Z,90.00
2023-02-23T22:55:51.065Z,90.07
2023-02-23T22:58:17.464Z,90.12
2023-02-23T23:00:43.775Z,90.22
2023-02-23T23:03:10.358Z,90.35
2023-02-23T23:05:36.644Z,90.36
2023-02-23T23:08:03.031Z,90.47
2023-02-23T23:10:29.347Z,90.67
2023-02-23T23:12:55.693Z,90.81
2023-02-23T23:15:23.540Z,90.93
2023-02-23T23:17:48.663Z,91.08
2023-02-23T23:20:14.733Z,91.31
2023-02-23T23:22:41.085Z,91.44
2023-02-23T23:25:07.439Z,91.51
2023-02-23T23:27:33.815Z,91.70
2023-02-23T23:30:00.174Z,91.72
2023-02-23T23:32:26.662Z,91.94
2023-02-23T23:34:52.905Z,92.13
2023-02-23T23:37:19.271Z,92.32
2023-02-23T23:39:45.649Z,92.44
2023-02-23T23:42:12.030Z,92.58
2023-02-23T23:44:38.326Z,92.65
2023-02-23T23:47:04.668Z,92.73
2023-02-23T23:49:31.034Z,92.88
2023-02-23T23:51:57.385Z,93.08
2023-02-23T23:54:23.748Z,93.22
2023-02-23T23:56:50.088Z,93.36
2023-02-23T23:59:16.481Z,93.55
